createdAt,value
2022-09-15T00:08:08.817Z,20.96
2022-09-15T00:18:10.599Z,21.23
2022-09-15T00:28:13.775Z,21.12
2022-09-15T00:38:17.325Z,20.90
2022-09-15T00:48:22.287Z,20.88
2022-09-15T00:58:30.681Z,20.69
2022-09-15T01:08:44.607Z,20.75
2022-09-15T01:19:07.497Z,20.65
2022-09-15T01:29:27.854Z,20.56
2022-09-15T01:39:35.004Z,20.84
2022-09-15T01:49:42.603Z,21.04
2022-09-15T01:59:44.573Z,21.17
2022-09-15T02:10:11.640Z,21.41
2022-09-15T02:20:23.782Z,21.40
2022-09-15T02:30:26.679Z,21.31
2022-09-15T02:40:29.087Z,21.37
2022-09-15T02:50:31.129Z,21.34
2022-09-15T03:00:32.879Z,21.33
2022-09-15T03:10:34.741Z,21.38
2022-09-15T03:20:36.316Z,21.19
2022-09-15T03:30:37.895Z,21.12
2022-09-15T03:40:39.464Z,21.24
2022-09-15T03:50:41.093Z,21.15
2022-09-15T04:00:42.895Z,21.08
2022-09-15T04:10:44.644Z,20.82
2022-09-15T04:20:46.705Z,20.81
2022-09-15T04:30:48.121Z,20.79
2022-09-15T04:40:51.505Z,20.75
2022-09-15T04:50:53.614Z,20.74
2022-09-15T05:00:55.300Z,20.82
2022-09-15T05:11:04.450Z,21.13
2022-09-15T05:21:07.561Z,21.62
2022-09-15T05:31:34.046Z,21.96
2022-09-15T05:41:35.597Z,22.01
2022-09-15T05:51:37.165Z,22.07
2022-09-15T06:01:38.641Z,22.57
2022-09-15T06:11:40.154Z,23.35
2022-09-15T06:21:41.713Z,23.91
2022-09-15T06:31:43.245Z,23.55
2022-09-15T06:42:01.842Z,23.87
2022-09-15T06:52:05.114Z,24.09
2022-09-15T07:02:06.650Z,24.11
2022-09-15T07:12:08.210Z,24.18
2022-09-15T07:22:11.889Z,27.75
2022-09-15T07:32:13.344Z,28.30
2022-09-15T07:42:15.517Z,26.40
2022-09-15T07:52:17.076Z,25.95
2022-09-15T08:02:20.593Z,27.60
2022-09-15T08:12:22.111Z,27.16
2022-09-15T08:22:23.665Z,27.14
2022-09-15T08:32:25.633Z,27.14
2022-09-15T08:42:29.389Z,25.73
2022-09-15T08:52:58.121Z,25.23
2022-09-15T09:03:08.800Z,25.13
2022-09-15T09:13:24.257Z,24.98
2022-09-15T09:23:29.679Z,24.96
2022-09-15T09:33:47.971Z,25.39
2022-09-15T09:43:50.084Z,26.17
2022-09-15T09:53:56.413Z,26.09
2022-09-15T10:04:13.339Z,25.74
2022-09-15T10:14:30.296Z,26.35
2022-09-15T10:24:50.593Z,26.59
2022-09-15T10:35:04.426Z,25.29
2022-09-15T10:45:39.184Z,24.16
2022-09-15T10:55:52.697Z,23.84
2022-09-15T11:06:17.396Z,23.20
2022-09-15T11:17:00.511Z,24.43
2022-09-15T11:27:20.020Z,25.29
2022-09-15T11:37:26.519Z,25.51
2022-09-15T11:47:36.533Z,25.74
2022-09-15T11:58:16.374Z,25.53
2022-09-15T12:08:29.524Z,25.37
2022-09-15T12:18:49.839Z,26.02
2022-09-15T12:29:14.999Z,26.46
2022-09-15T12:39:30.151Z,26.88
2022-09-15T12:49:42.780Z,26.66
2022-09-15T12:59:44.566Z,28.51
2022-09-15T13:09:58.181Z,28.96
2022-09-15T13:20:08.712Z,28.59
2022-09-15T13:30:30.946Z,26.34
2022-09-15T13:40:44.995Z,24.95
2022-09-15T13:51:00.077Z,24.19
2022-09-15T14:01:04.992Z,23.25
2022-09-15T14:11:12.970Z,22.86
2022-09-15T14:21:19.909Z,22.99
2022-09-15T14:31:43.422Z,22.51
2022-09-15T14:41:45.978Z,23.27
2022-09-15T14:51:51.500Z,23.85
2022-09-15T15:02:17.321Z,24.02
2022-09-15T15:12:32.030Z,23.05
2022-09-15T15:22:34.162Z,22.08
2022-09-15T15:32:35.945Z,22.17
2022-09-15T15:42:37.361Z,21.97
2022-09-15T15:52:38.931Z,21.79
2022-09-15T16:02:40.469Z,21.76
2022-09-15T16:12:42.152Z,21.96
2022-09-15T16:22:43.833Z,21.88
2022-09-15T16:32:45.259Z,21.47
2022-09-15T16:42:47.587Z,21.20
2022-09-15T16:52:49.074Z,20.69
2022-09-15T17:02:50.590Z,20.53
2022-09-15T17:12:52.325Z,19.97
2022-09-15T17:22:54.883Z,19.47
2022-09-15T17:33:10.542Z,19.09
2022-09-15T17:43:24.208Z,18.78
2022-09-15T17:53:26.801Z,18.52
2022-09-15T18:03:34.773Z,18.43
2022-09-15T18:13:37.265Z,18.93
2022-09-15T18:23:39.125Z,19.13
2022-09-15T18:33:40.991Z,18.97
2022-09-15T18:43:43.643Z,19.09
2022-09-15T18:53:45.065Z,19.05
2022-09-15T19:03:46.580Z,19.20
2022-09-15T19:13:48.033Z,19.15
2022-09-15T19:23:49.456Z,18.63
2022-09-15T19:33:51.501Z,18.35
2022-09-15T19:43:53.117Z,18.28
2022-09-15T19:53:56.005Z,18.08
2022-09-15T20:03:57.416Z,17.99
2022-09-15T20:13:59.886Z,18.01
2022-09-15T20:24:02.533Z,17.81
2022-09-15T20:34:04.028Z,17.66
2022-09-15T20:44:09.258Z,17.45
2022-09-15T20:54:11.224Z,17.41
2022-09-15T21:04:12.750Z,17.35
2022-09-15T21:14:14.668Z,17.22
2022-09-15T21:24:17.042Z,16.94
2022-09-15T21:34:18.545Z,16.87
2022-09-15T21:44:20.002Z,16.72
2022-09-15T21:54:21.649Z,16.56
2022-09-15T22:04:23.631Z,16.55
2022-09-15T22:14:26.513Z,16.52
2022-09-15T22:24:29.502Z,16.50
2022-09-15T22:34:31.025Z,16.46
2022-09-15T22:44:32.813Z,16.68
2022-09-15T22:54:34.542Z,16.62
2022-09-15T23:04:36.557Z,16.41
2022-09-15T23:14:38.019Z,16.32
2022-09-15T23:24:39.439Z,16.21
2022-09-15T23:34:40.861Z,16.12
2022-09-15T23:44:42.310Z,16.06
2022-09-15T23:54:44.290Z,16.02
